Time;durP1;ratioP1;P1;durP2;ratioP2;P2;SDS_P1;SDS_P2;PMS_P1;PMS_P2;Temp;Humidity;BMP_temperature;BMP_pressure;BME280_temperature;BME280_humidity;BME280_pressure;Samples;Min_cycle;Max_cycle;Signal;HPM_P1;HPM_P2
2023/09/16 00:00:14;;;;;;;;;;;23.10;1.00;;;;;;4937140;29;19927;-58
2023/09/16 00:02:40;;;;;;;;;;;23.10;1.00;;;;;;4936699;29;19931;-60
2023/09/16 00:05:07;;;;;;;;;;;23.00;1.00;;;;;;4936876;29;20284;-59
2023/09/16 00:07:34;;;;;;;;;;;23.10;1.00;;;;;;4936499;29;19933;-58
2023/09/16 00:10:01;;;;;;;;;;;23.10;1.00;;;;;;4936892;29;19927;-60
2023/09/16 00:12:28;;;;;;;;;;;23.00;1.00;;;;;;4936714;29;20014;-60
2023/09/16 00:14:55;;;;;;;;;;;23.00;1.00;;;;;;4936716;29;20005;-60
2023/09/16 00:17:22;;;;;;;;;;;23.00;1.00;;;;;;4931574;29;19933;-60
2023/09/16 00:19:48;;;;;;;;;;;23.00;1.00;;;;;;4936145;29;20021;-59
2023/09/16 00:22:21;;;;;;;;;;;23.00;1.00;;;;;;4936247;29;19927;-60
2023/09/16 00:24:48;;;;;;;;;;;23.00;1.00;;;;;;4936190;29;19958;-60
2023/09/16 00:27:14;;;;;;;;;;;23.00;1.00;;;;;;4935804;29;19927;-60
2023/09/16 00:29:41;;;;;;;;;;;23.00;1.00;;;;;;4936128;29;20400;-58
2023/09/16 00:32:08;;;;;;;;;;;23.00;1.00;;;;;;4950728;29;19973;-60
2023/09/16 00:34:35;;;;;;;;;;;23.00;1.00;;;;;;4936025;29;19931;-60
2023/09/16 00:37:03;;;;;;;;;;;23.00;1.00;;;;;;4950265;29;19927;-60
2023/09/16 00:39:31;;;;;;;;;;;23.00;1.00;;;;;;4950848;29;19931;-60
2023/09/16 00:41:58;;;;;;;;;;;23.00;1.00;;;;;;4950580;29;19927;-60
2023/09/16 00:44:25;;;;;;;;;;;23.00;1.00;;;;;;4935926;29;20305;-57
2023/09/16 00:46:52;;;;;;;;;;;23.00;1.00;;;;;;4950374;29;20418;-60
2023/09/16 00:49:19;;;;;;;;;;;23.00;1.00;;;;;;4949500;28;19926;-59
2023/09/16 00:51:46;;;;;;;;;;;23.00;1.00;;;;;;4950370;29;19927;-60
2023/09/16 00:54:13;;;;;;;;;;;23.00;1.00;;;;;;4950431;29;20025;-60
2023/09/16 00:56:40;;;;;;;;;;;23.00;1.00;;;;;;4949855;29;19934;-59
2023/09/16 00:59:08;;;;;;;;;;;23.00;1.00;;;;;;4934228;29;19933;-59
2023/09/16 01:01:37;;;;;;;;;;;23.00;1.00;;;;;;4950352;29;19927;-60
2023/09/16 01:04:04;;;;;;;;;;;23.00;1.00;;;;;;4935409;29;19949;-60
2023/09/16 01:06:32;;;;;;;;;;;23.00;1.00;;;;;;4935251;29;20018;-60
2023/09/16 01:08:59;;;;;;;;;;;22.90;1.00;;;;;;4934019;29;20068;-60
2023/09/16 01:11:26;;;;;;;;;;;22.90;1.00;;;;;;4935482;29;19927;-60
2023/09/16 01:13:53;;;;;;;;;;;22.90;1.00;;;;;;4935486;29;20347;-60
2023/09/16 01:16:34;;;;;;;;;;;22.90;1.00;;;;;;4933967;29;19931;-59
2023/09/16 01:19:24;;;;;;;;;;;22.90;1.00;;;;;;4935822;29;20298;-59
2023/09/16 01:21:52;;;;;;;;;;;22.90;1.00;;;;;;4916516;29;19978;-60
2023/09/16 01:24:20;;;;;;;;;;;22.90;1.00;;;;;;4933977;29;20045;-59
2023/09/16 01:26:47;;;;;;;;;;;22.90;1.00;;;;;;4933577;29;19959;-60
2023/09/16 01:29:15;;;;;;;;;;;22.90;1.00;;;;;;4935363;29;19956;-59
2023/09/16 01:31:42;;;;;;;;;;;22.90;1.00;;;;;;4949833;29;19927;-60
2023/09/16 01:34:17;;;;;;;;;;;22.90;1.00;;;;;;4949846;29;19974;-60
2023/09/16 01:36:47;;;;;;;;;;;22.90;1.00;;;;;;4949451;29;20493;-60
2023/09/16 01:39:15;;;;;;;;;;;22.90;1.00;;;;;;4935167;29;19962;-60
2023/09/16 01:41:44;;;;;;;;;;;22.90;1.00;;;;;;4934980;29;19931;-60
2023/09/16 01:44:10;;;;;;;;;;;22.90;1.00;;;;;;4949675;29;19937;-60
2023/09/16 01:46:37;;;;;;;;;;;22.80;1.00;;;;;;4949317;29;19926;-60
2023/09/16 01:49:04;;;;;;;;;;;22.80;1.00;;;;;;4949512;29;19949;-59
2023/09/16 01:51:31;;;;;;;;;;;22.80;1.00;;;;;;4934932;29;20302;-60
2023/09/16 01:53:57;;;;;;;;;;;22.80;1.00;;;;;;4949715;29;19926;-60
2023/09/16 01:56:25;;;;;;;;;;;22.80;1.00;;;;;;4934824;29;20379;-60
2023/09/16 01:58:52;;;;;;;;;;;22.80;1.00;;;;;;4933523;29;20021;-60
2023/09/16 02:01:18;;;;;;;;;;;22.80;1.00;;;;;;4936760;29;19973;-60
2023/09/16 02:03:45;;;;;;;;;;;22.80;1.00;;;;;;4953647;29;19933;-60
2023/09/16 02:06:12;;;;;;;;;;;22.80;1.00;;;;;;4938481;29;19948;-59
2023/09/16 02:08:40;;;;;;;;;;;22.80;1.00;;;;;;4953328;29;19934;-59
2023/09/16 02:11:07;;;;;;;;;;;22.80;1.00;;;;;;4953294;29;19931;-60
2023/09/16 02:13:35;;;;;;;;;;;22.80;1.00;;;;;;4937282;29;19966;-58
2023/09/16 02:16:02;;;;;;;;;;;22.80;1.00;;;;;;4937103;29;19943;-60
2023/09/16 02:18:29;;;;;;;;;;;22.80;1.00;;;;;;4953021;29;20370;-60
2023/09/16 02:20:57;;;;;;;;;;;22.80;1.00;;;;;;4937124;29;19927;-59
2023/09/16 02:23:23;;;;;;;;;;;22.80;1.00;;;;;;4953110;29;19926;-60
2023/09/16 02:25:50;;;;;;;;;;;22.80;1.00;;;;;;4937002;29;19934;-58
2023/09/16 02:28:17;;;;;;;;;;;22.80;1.00;;;;;;4938166;29;19998;-60
2023/09/16 02:30:44;;;;;;;;;;;22.80;1.00;;;;;;4952951;29;19934;-60
2023/09/16 02:33:10;;;;;;;;;;;22.80;1.00;;;;;;4952893;29;19934;-60
2023/09/16 02:35:38;;;;;;;;;;;22.80;1.00;;;;;;4952930;29;19926;-58
2023/09/16 02:38:06;;;;;;;;;;;22.70;1.00;;;;;;4952632;29;20398;-60
2023/09/16 02:40:38;;;;;;;;;;;22.70;1.00;;;;;;4952846;29;19927;-60
2023/09/16 02:43:04;;;;;;;;;;;22.70;1.00;;;;;;4938033;29;20383;-60
2023/09/16 02:45:31;;;;;;;;;;;22.70;1.00;;;;;;4937865;29;19982;-60
2023/09/16 02:47:58;;;;;;;;;;;22.70;1.00;;;;;;4952332;29;19927;-60
2023/09/16 02:50:25;;;;;;;;;;;22.70;1.00;;;;;;4952887;29;19973;-60
2023/09/16 02:52:52;;;;;;;;;;;22.70;1.00;;;;;;4952615;29;19974;-60
2023/09/16 02:55:18;;;;;;;;;;;22.70;1.00;;;;;;4952675;29;19926;-60
2023/09/16 02:57:45;;;;;;;;;;;22.70;1.00;;;;;;4952180;29;20335;-60
2023/09/16 03:00:13;;;;;;;;;;;22.70;1.00;;;;;;4932758;29;19935;-60
2023/09/16 03:02:40;;;;;;;;;;;22.70;1.00;;;;;;4942628;29;19927;-60
2023/09/16 03:05:07;;;;;;;;;;;22.70;1.00;;;;;;4952167;29;20309;-58
2023/09/16 03:07:34;;;;;;;;;;;22.70;1.00;;;;;;4952096;29;20013;-58
2023/09/16 03:10:01;;;;;;;;;;;22.70;1.00;;;;;;4937558;29;19977;-59
2023/09/16 03:12:28;;;;;;;;;;;22.70;1.00;;;;;;4951488;28;19927;-60
2023/09/16 03:14:55;;;;;;;;;;;22.70;1.00;;;;;;4952129;29;19926;-58
2023/09/16 03:17:22;;;;;;;;;;;22.70;1.00;;;;;;4951784;29;19927;-57
2023/09/16 03:19:50;;;;;;;;;;;22.70;1.00;;;;;;4937389;29;19985;-57
2023/09/16 03:22:16;;;;;;;;;;;22.70;1.00;;;;;;4936130;29;19926;-60
2023/09/16 03:24:43;;;;;;;;;;;22.70;1.00;;;;;;4936083;29;19927;-56
2023/09/16 03:27:10;;;;;;;;;;;22.60;1.00;;;;;;4935595;29;19934;-58
2023/09/16 03:29:37;;;;;;;;;;;22.60;1.00;;;;;;4951996;29;19927;-57
2023/09/16 03:32:04;;;;;;;;;;;22.60;1.00;;;;;;4951828;29;20387;-56
2023/09/16 03:34:32;;;;;;;;;;;22.60;1.00;;;;;;4951865;29;19966;-57
2023/09/16 03:36:59;;;;;;;;;;;22.60;1.00;;;;;;4951543;29;19927;-58
2023/09/16 03:39:26;;;;;;;;;;;22.60;1.00;;;;;;4937434;29;19926;-58
2023/09/16 03:41:54;;;;;;;;;;;22.60;1.00;;;;;;4951530;29;19927;-59
2023/09/16 03:44:21;;;;;;;;;;;22.60;1.00;;;;;;4937107;29;20414;-59
2023/09/16 03:46:48;;;;;;;;;;;22.60;1.00;;;;;;4951386;29;20026;-58
2023/09/16 03:49:15;;;;;;;;;;;22.60;1.00;;;;;;4951523;29;19927;-59
2023/09/16 03:51:43;;;;;;;;;;;22.60;1.00;;;;;;4951688;29;20342;-58
2023/09/16 03:54:13;;;;;;;;;;;22.60;1.00;;;;;;4951344;29;20409;-58
2023/09/16 03:56:41;;;;;;;;;;;22.60;1.00;;;;;;4951227;29;19935;-60
2023/09/16 03:59:09;;;;;;;;;;;22.60;1.00;;;;;;4951281;29;19934;-59
2023/09/16 04:01:37;;;;;;;;;;;22.60;1.00;;;;;;4951524;29;19978;-58
2023/09/16 04:04:05;;;;;;;;;;;22.60;1.00;;;;;;4935472;29;19978;-59
2023/09/16 04:06:32;;;;;;;;;;;22.60;1.00;;;;;;4935190;29;20406;-58
2023/09/16 04:09:00;;;;;;;;;;;22.50;1.00;;;;;;4951023;29;20450;-59
2023/09/16 04:11:27;;;;;;;;;;;22.50;1.00;;;;;;4951255;29;19927;-57
2023/09/16 04:13:55;;;;;;;;;;;22.50;1.00;;;;;;4936483;29;19927;-59
2023/09/16 04:16:25;;;;;;;;;;;22.50;1.00;;;;;;4936023;29;19982;-60
2023/09/16 04:18:53;;;;;;;;;;;22.50;1.00;;;;;;4936220;29;19937;-59
2023/09/16 04:21:20;;;;;;;;;;;22.50;1.00;;;;;;4935068;29;20332;-60
2023/09/16 04:23:47;;;;;;;;;;;22.50;1.00;;;;;;4936206;29;19982;-57
2023/09/16 04:26:15;;;;;;;;;;;22.50;1.00;;;;;;4950844;29;20497;-59
2023/09/16 04:28:44;;;;;;;;;;;22.50;1.00;;;;;;4950884;29;19999;-57
2023/09/16 04:31:11;;;;;;;;;;;22.50;1.00;;;;;;4950686;29;20039;-56
2023/09/16 04:33:39;;;;;;;;;;;22.50;1.00;;;;;;4950932;29;20022;-60
2023/09/16 04:36:06;;;;;;;;;;;22.50;1.00;;;;;;4934557;29;19933;-58
2023/09/16 04:38:33;;;;;;;;;;;22.50;1.00;;;;;;4950924;29;19949;-56
2023/09/16 04:41:00;;;;;;;;;;;22.50;1.00;;;;;;4950677;29;19933;-59
2023/09/16 04:43:30;;;;;;;;;;;22.40;1.00;;;;;;4950638;29;19927;-57
2023/09/16 04:45:57;;;;;;;;;;;22.50;1.00;;;;;;4935650;29;19962;-59
2023/09/16 04:48:39;;;;;;;;;;;22.40;1.00;;;;;;4950528;29;19926;-60
2023/09/16 04:51:06;;;;;;;;;;;22.40;1.00;;;;;;4935778;29;19927;-60
2023/09/16 04:53:33;;;;;;;;;;;22.40;1.00;;;;;;4950360;29;19927;-58
2023/09/16 04:56:00;;;;;;;;;;;22.40;1.00;;;;;;4934333;29;19934;-58
2023/09/16 04:58:31;;;;;;;;;;;22.40;1.00;;;;;;4934317;29;19926;-60
2023/09/16 05:00:59;;;;;;;;;;;22.40;1.00;;;;;;4950230;29;19926;-58
2023/09/16 05:03:26;;;;;;;;;;;22.40;1.00;;;;;;4934356;29;19944;-58
2023/09/16 05:05:53;;;;;;;;;;;22.40;1.00;;;;;;4934171;29;19927;-59
2023/09/16 05:08:24;;;;;;;;;;;22.40;1.00;;;;;;4950051;29;19938;-59
2023/09/16 05:10:57;;;;;;;;;;;22.40;1.00;;;;;;4950110;29;20426;-58
2023/09/16 05:13:25;;;;;;;;;;;22.40;1.00;;;;;;4933219;29;19930;-58
2023/09/16 05:15:52;;;;;;;;;;;22.40;1.00;;;;;;4949604;29;20474;-58
2023/09/16 05:18:19;;;;;;;;;;;22.40;1.00;;;;;;4934902;29;20305;-59
2023/09/16 05:20:49;;;;;;;;;;;22.40;1.00;;;;;;4934793;29;19927;-58
2023/09/16 05:23:16;;;;;;;;;;;22.40;1.00;;;;;;4949967;29;19965;-58
2023/09/16 05:25:44;;;;;;;;;;;22.40;1.00;;;;;;4933747;29;19930;-60
2023/09/16 05:28:11;;;;;;;;;;;22.40;1.00;;;;;;4931906;29;19933;-58
2023/09/16 05:30:37;;;;;;;;;;;22.40;1.00;;;;;;4919431;29;20307;-60
2023/09/16 05:33:04;;;;;;;;;;;22.40;1.00;;;;;;4917775;29;19935;-58
2023/09/16 05:35:32;;;;;;;;;;;22.30;1.00;;;;;;4919402;29;20485;-58
2023/09/16 05:38:00;;;;;;;;;;;22.30;1.00;;;;;;4933604;29;20022;-58
2023/09/16 05:40:27;;;;;;;;;;;22.30;1.00;;;;;;4915945;29;19934;-58
2023/09/16 05:42:55;;;;;;;;;;;22.30;1.00;;;;;;4919646;29;19927;-60
2023/09/16 05:45:22;;;;;;;;;;;22.20;1.00;;;;;;4919446;29;19926;-59
2023/09/16 05:47:49;;;;;;;;;;;22.20;1.00;;;;;;4915339;29;20318;-59
2023/09/16 05:50:17;;;;;;;;;;;22.20;1.00;;;;;;4924565;29;20347;-60
2023/09/16 05:52:44;;;;;;;;;;;22.10;1.00;;;;;;4933929;29;20601;-60
2023/09/16 05:55:10;;;;;;;;;;;22.10;1.00;;;;;;4949725;29;20043;-60
2023/09/16 05:57:37;;;;;;;;;;;22.10;1.00;;;;;;4929854;29;20017;-58
2023/09/16 06:00:05;;;;;;;;;;;22.10;1.00;;;;;;4929009;29;20298;-59
2023/09/16 06:02:41;;;;;;;;;;;22.10;1.00;;;;;;4935351;29;20386;-58
2023/09/16 06:05:08;;;;;;;;;;;22.10;1.00;;;;;;4935143;29;20018;-60
2023/09/16 06:07:42;;;;;;;;;;;22.10;1.00;;;;;;4933378;29;19931;-59
2023/09/16 06:10:09;;;;;;;;;;;22.10;1.00;;;;;;4933754;29;19927;-59
2023/09/16 06:12:36;;;;;;;;;;;22.10;1.00;;;;;;4933835;29;19927;-58
2023/09/16 06:15:03;;;;;;;;;;;22.10;1.00;;;;;;4935167;29;19931;-60
2023/09/16 06:17:30;;;;;;;;;;;22.10;1.00;;;;;;4938925;29;19926;-58
2023/09/16 06:19:57;;;;;;;;;;;22.10;1.00;;;;;;4934458;29;19927;-59
2023/09/16 06:22:24;;;;;;;;;;;22.10;1.00;;;;;;4921106;29;19934;-59
2023/09/16 06:24:51;;;;;;;;;;;22.10;1.00;;;;;;4934608;29;19934;-57
2023/09/16 06:27:21;;;;;;;;;;;22.10;1.00;;;;;;4924272;29;19934;-60
2023/09/16 06:29:50;;;;;;;;;;;22.10;1.00;;;;;;4946179;29;19926;-58
2023/09/16 06:32:19;;;;;;;;;;;22.10;1.00;;;;;;4947626;29;19927;-58
2023/09/16 06:34:50;;;;;;;;;;;22.10;1.00;;;;;;4943922;29;19990;-59
2023/09/16 06:37:17;;;;;;;;;;;22.10;1.00;;;;;;4930067;29;19975;-59
2023/09/16 06:39:46;;;;;;;;;;;22.10;1.00;;;;;;4926971;29;19927;-59
2023/09/16 06:42:15;;;;;;;;;;;22.20;1.00;;;;;;4949203;29;19933;-59
2023/09/16 06:44:42;;;;;;;;;;;22.20;1.00;;;;;;4934429;29;19927;-57
2023/09/16 06:47:08;;;;;;;;;;;22.20;1.00;;;;;;4928509;29;19927;-59
2023/09/16 06:49:35;;;;;;;;;;;22.20;1.00;;;;;;4938443;29;20022;-57
2023/09/16 06:52:02;;;;;;;;;;;22.20;1.00;;;;;;4938263;29;20022;-59
2023/09/16 06:54:29;;;;;;;;;;;22.20;1.00;;;;;;4938020;29;19989;-58
2023/09/16 06:56:56;;;;;;;;;;;22.20;1.00;;;;;;4930033;29;19926;-58
2023/09/16 06:59:23;;;;;;;;;;;22.20;1.00;;;;;;4936184;29;20290;-57
2023/09/16 07:01:50;;;;;;;;;;;22.20;1.00;;;;;;4937773;29;19981;-58
2023/09/16 07:04:18;;;;;;;;;;;22.20;1.00;;;;;;4937494;29;19927;-58
2023/09/16 07:06:44;;;;;;;;;;;22.30;1.00;;;;;;4936731;29;20391;-59
2023/09/16 07:09:12;;;;;;;;;;;22.30;1.00;;;;;;4937899;29;19926;-60
2023/09/16 07:11:39;;;;;;;;;;;22.30;1.00;;;;;;4938090;29;19997;-59
2023/09/16 07:14:06;;;;;;;;;;;22.30;1.00;;;;;;4937774;29;20367;-59
2023/09/16 07:16:37;;;;;;;;;;;22.30;1.00;;;;;;4936789;29;19969;-59
2023/09/16 07:19:04;;;;;;;;;;;22.30;1.00;;;;;;4937418;29;20474;-57
2023/09/16 07:21:31;;;;;;;;;;;22.30;1.00;;;;;;4937385;29;19934;-60
2023/09/16 07:24:01;;;;;;;;;;;22.30;1.00;;;;;;4937368;29;20371;-57
2023/09/16 07:26:28;;;;;;;;;;;22.30;1.00;;;;;;4936466;29;19982;-59
2023/09/16 07:28:56;;;;;;;;;;;22.30;1.00;;;;;;4937199;29;19974;-59
2023/09/16 07:31:23;;;;;;;;;;;22.30;1.00;;;;;;4937605;29;19933;-60
2023/09/16 07:33:50;;;;;;;;;;;22.30;1.00;;;;;;4935376;29;19926;-58
2023/09/16 07:36:17;;;;;;;;;;;22.30;1.00;;;;;;4936838;29;19926;-57
2023/09/16 07:38:44;;;;;;;;;;;22.30;1.00;;;;;;4935553;29;19986;-59
2023/09/16 07:41:11;;;;;;;;;;;22.30;1.00;;;;;;4937366;29;20014;-60
2023/09/16 07:43:38;;;;;;;;;;;22.30;1.00;;;;;;4927736;29;19927;-61
2023/09/16 07:46:05;;;;;;;;;;;22.30;1.00;;;;;;4936801;29;20462;-58
2023/09/16 07:48:32;;;;;;;;;;;22.30;1.00;;;;;;4936599;29;20003;-61
2023/09/16 07:50:59;;;;;;;;;;;22.30;1.00;;;;;;4936896;29;19926;-59
2023/09/16 07:53:26;;;;;;;;;;;22.30;1.00;;;;;;4936759;29;19989;-59
2023/09/16 07:55:52;;;;;;;;;;;22.30;1.00;;;;;;4936536;29;20005;-60
2023/09/16 07:58:19;;;;;;;;;;;22.30;1.00;;;;;;4936529;29;19962;-60
2023/09/16 08:00:46;;;;;;;;;;;22.30;1.00;;;;;;4936673;29;19927;-61
2023/09/16 08:03:13;;;;;;;;;;;22.30;1.00;;;;;;4936717;29;19970;-59
2023/09/16 08:05:40;;;;;;;;;;;22.30;1.00;;;;;;4928677;29;19958;-59
2023/09/16 08:08:06;;;;;;;;;;;22.30;1.00;;;;;;4936397;29;19927;-60
2023/09/16 08:10:33;;;;;;;;;;;22.30;1.00;;;;;;4936409;29;19946;-61
2023/09/16 08:13:00;;;;;;;;;;;22.30;1.00;;;;;;4936534;29;20372;-61
2023/09/16 08:15:27;;;;;;;;;;;22.30;1.00;;;;;;4936201;29;19927;-61
2023/09/16 08:17:54;;;;;;;;;;;22.30;1.00;;;;;;4933005;29;19949;-61
2023/09/16 08:20:21;;;;;;;;;;;22.30;1.00;;;;;;4933398;29;19965;-60
2023/09/16 08:22:48;;;;;;;;;;;22.40;1.00;;;;;;4935389;29;19974;-60
2023/09/16 08:25:15;;;;;;;;;;;22.40;1.00;;;;;;4935690;29;19962;-61
2023/09/16 08:27:42;;;;;;;;;;;22.40;1.00;;;;;;4935842;29;19934;-61
2023/09/16 08:30:10;;;;;;;;;;;22.40;1.00;;;;;;4935992;29;19934;-61
2023/09/16 08:32:38;;;;;;;;;;;22.40;1.00;;;;;;4936497;29;20631;-61
2023/09/16 08:35:07;;;;;;;;;;;22.40;1.00;;;;;;4935962;29;20398;-61
2023/09/16 08:37:35;;;;;;;;;;;22.40;1.00;;;;;;4935584;29;20383;-61
2023/09/16 08:40:02;;;;;;;;;;;22.40;1.00;;;;;;4935954;29;19931;-61
2023/09/16 08:42:35;;;;;;;;;;;22.40;1.00;;;;;;4935760;29;20398;-59
2023/09/16 08:45:06;;;;;;;;;;;22.40;1.00;;;;;;4932210;29;19927;-61
2023/09/16 08:47:34;;;;;;;;;;;22.40;1.00;;;;;;4931540;29;20003;-61
2023/09/16 08:50:08;;;;;;;;;;;22.40;1.00;;;;;;4934891;29;20225;-61
2023/09/16 08:52:46;;;;;;;;;;;22.40;1.00;;;;;;4935621;29;19930;-61
2023/09/16 08:55:13;;;;;;;;;;;22.50;1.00;;;;;;4934274;29;19926;-60
2023/09/16 08:57:44;;;;;;;;;;;22.50;1.00;;;;;;4933403;29;19938;-61
2023/09/16 09:00:11;;;;;;;;;;;22.50;1.00;;;;;;4935333;29;19926;-61
2023/09/16 09:02:38;;;;;;;;;;;22.50;1.00;;;;;;4935406;29;19927;-61
2023/09/16 09:05:06;;;;;;;;;;;22.50;1.00;;;;;;4935432;29;19927;-61
2023/09/16 09:07:38;;;;;;;;;;;22.50;1.00;;;;;;4930620;29;19962;-61
2023/09/16 09:10:05;;;;;;;;;;;22.60;1.00;;;;;;4935175;29;20018;-61
2023/09/16 09:12:36;;;;;;;;;;;22.60;1.00;;;;;;4929342;29;20033;-60
2023/09/16 09:15:06;;;;;;;;;;;22.60;1.00;;;;;;4935783;29;20021;-61
2023/09/16 09:17:36;;;;;;;;;;;22.60;1.00;;;;;;4934953;29;19971;-61
2023/09/16 09:20:04;;;;;;;;;;;22.60;1.00;;;;;;4935499;29;19969;-61
2023/09/16 09:22:32;;;;;;;;;;;22.60;1.00;;;;;;4934619;29;19934;-61
2023/09/16 09:24:59;;;;;;;;;;;22.60;1.00;;;;;;4935164;29;20025;-61
2023/09/16 09:27:28;;;;;;;;;;;22.60;1.00;;;;;;4934829;29;19927;-61
2023/09/16 09:29:55;;;;;;;;;;;22.60;1.00;;;;;;4935164;29;19958;-61
2023/09/16 09:32:22;;;;;;;;;;;22.60;1.00;;;;;;4935327;29;19931;-61
2023/09/16 09:34:49;;;;;;;;;;;22.60;1.00;;;;;;4935077;29;19941;-61
2023/09/16 09:37:16;;;;;;;;;;;22.60;1.00;;;;;;4934974;29;19931;-61
2023/09/16 09:39:45;;;;;;;;;;;22.70;1.00;;;;;;4934965;29;20302;-61
2023/09/16 09:42:21;;;;;;;;;;;22.60;1.00;;;;;;4935055;29;19931;-61
2023/09/16 09:44:59;;;;;;;;;;;22.70;1.00;;;;;;4933682;29;19926;-61
2023/09/16 09:47:26;;;;;;;;;;;22.60;1.00;;;;;;4934602;29;19982;-58
2023/09/16 09:49:53;;;;;;;;;;;22.70;1.00;;;;;;4935442;29;19927;-61
2023/09/16 09:52:20;;;;;;;;;;;22.70;1.00;;;;;;4934999;29;20413;-61
2023/09/16 09:54:50;;;;;;;;;;;22.70;1.00;;;;;;4934807;29;19982;-61
2023/09/16 09:57:17;;;;;;;;;;;22.70;1.00;;;;;;4934579;29;19927;-60
2023/09/16 09:59:45;;;;;;;;;;;22.70;1.00;;;;;;4934876;29;19970;-61
2023/09/16 10:02:12;;;;;;;;;;;22.70;1.00;;;;;;4934964;29;19927;-61
2023/09/16 10:04:39;;;;;;;;;;;22.70;1.00;;;;;;4934880;29;19927;-61
2023/09/16 10:07:06;;;;;;;;;;;22.70;1.00;;;;;;4934829;29;19942;-61
2023/09/16 10:09:33;;;;;;;;;;;22.70;1.00;;;;;;4934712;29;19958;-61
2023/09/16 10:12:00;;;;;;;;;;;22.70;1.00;;;;;;4934855;29;19970;-61
2023/09/16 10:14:27;;;;;;;;;;;22.70;1.00;;;;;;4934839;29;20025;-61
2023/09/16 10:16:54;;;;;;;;;;;22.70;1.00;;;;;;4934386;29;19974;-61
2023/09/16 10:19:21;;;;;;;;;;;22.70;1.00;;;;;;4934812;29;20402;-61
2023/09/16 10:21:48;;;;;;;;;;;22.70;1.00;;;;;;4936759;29;19965;-61
2023/09/16 10:24:15;;;;;;;;;;;22.70;1.00;;;;;;4938923;29;20082;-61
2023/09/16 10:26:42;;;;;;;;;;;22.70;1.00;;;;;;4937946;29;19927;-61
2023/09/16 10:29:10;;;;;;;;;;;22.70;1.00;;;;;;4938383;29;20037;-61
2023/09/16 10:31:39;;;;;;;;;;;22.70;1.00;;;;;;4938307;29;20347;-61
2023/09/16 10:34:06;;;;;;;;;;;22.70;1.00;;;;;;4938025;29;19934;-61
2023/09/16 10:36:34;;;;;;;;;;;22.70;1.00;;;;;;4938229;29;20453;-61
2023/09/16 10:39:01;;;;;;;;;;;22.70;1.00;;;;;;4938254;29;20009;-60
2023/09/16 10:41:29;;;;;;;;;;;22.70;1.00;;;;;;4938175;29;19934;-61
2023/09/16 10:43:57;;;;;;;;;;;22.70;1.00;;;;;;4938309;29;20260;-61
2023/09/16 10:46:25;;;;;;;;;;;22.70;1.00;;;;;;4938001;29;19989;-61
2023/09/16 10:48:52;;;;;;;;;;;22.70;1.00;;;;;;4937773;29;19935;-61
2023/09/16 10:51:22;;;;;;;;;;;22.70;1.00;;;;;;4937994;29;19927;-61
2023/09/16 10:53:53;;;;;;;;;;;22.70;1.00;;;;;;4937775;29;19927;-61
2023/09/16 10:56:26;;;;;;;;;;;22.70;1.00;;;;;;4937806;29;20382;-61
2023/09/16 10:58:55;;;;;;;;;;;22.70;1.00;;;;;;4937960;29;19926;-61
2023/09/16 11:01:39;;;;;;;;;;;22.70;1.00;;;;;;4937884;29;19974;-61
2023/09/16 11:04:16;;;;;;;;;;;22.70;1.00;;;;;;4937841;29;19927;-61
2023/09/16 11:06:47;;;;;;;;;;;22.70;1.00;;;;;;4937286;29;19926;-61
2023/09/16 11:09:15;;;;;;;;;;;22.70;1.00;;;;;;4937766;29;19950;-61
2023/09/16 11:11:42;;;;;;;;;;;22.70;1.00;;;;;;4938018;29;19994;-60
2023/09/16 11:14:09;;;;;;;;;;;22.70;1.00;;;;;;4937565;29;20343;-61
2023/09/16 11:16:47;;;;;;;;;;;22.70;1.00;;;;;;4937273;29;20272;-61
2023/09/16 11:19:15;;;;;;;;;;;22.70;1.00;;;;;;4937489;29;19927;-61
2023/09/16 11:21:43;;;;;;;;;;;22.70;1.00;;;;;;4937514;29;20395;-60
2023/09/16 11:24:12;;;;;;;;;;;22.80;1.00;;;;;;4937228;29;19966;-60
2023/09/16 11:26:40;;;;;;;;;;;22.80;1.00;;;;;;4936911;29;19958;-61
2023/09/16 11:29:16;;;;;;;;;;;22.80;1.00;;;;;;4937344;29;19926;-61
2023/09/16 11:31:43;;;;;;;;;;;22.70;1.00;;;;;;4937198;29;20021;-59
2023/09/16 11:34:11;;;;;;;;;;;22.70;1.00;;;;;;4936574;29;20387;-60
2023/09/16 11:36:41;;;;;;;;;;;22.70;1.00;;;;;;4936833;29;19933;-60
2023/09/16 11:39:09;;;;;;;;;;;22.80;1.00;;;;;;4937157;29;19973;-59
2023/09/16 11:41:36;;;;;;;;;;;22.80;1.00;;;;;;4937013;29;20370;-61
2023/09/16 11:44:04;;;;;;;;;;;22.70;1.00;;;;;;4937098;29;19927;-60
2023/09/16 11:46:31;;;;;;;;;;;22.80;1.00;;;;;;4936895;29;20013;-61
2023/09/16 11:49:05;;;;;;;;;;;22.70;1.00;;;;;;4936658;29;19942;-60
2023/09/16 11:51:36;;;;;;;;;;;22.80;1.00;;;;;;4937038;29;20473;-60
2023/09/16 11:54:03;;;;;;;;;;;22.80;1.00;;;;;;4936842;29;20045;-60
2023/09/16 11:56:34;;;;;;;;;;;22.70;1.00;;;;;;4936650;29;19934;-60
2023/09/16 11:59:02;;;;;;;;;;;22.70;1.00;;;;;;4936754;29;20302;-60
2023/09/16 12:01:31;;;;;;;;;;;22.80;1.00;;;;;;4937234;29;20335;-61
2023/09/16 12:03:59;;;;;;;;;;;22.80;1.00;;;;;;4936750;29;20017;-58
2023/09/16 12:06:26;;;;;;;;;;;22.80;1.00;;;;;;4936400;29;20315;-61
2023/09/16 12:08:55;;;;;;;;;;;22.80;1.00;;;;;;4936485;29;19927;-61
2023/09/16 12:11:22;;;;;;;;;;;22.80;1.00;;;;;;4936538;29;20005;-61
2023/09/16 12:13:49;;;;;;;;;;;22.80;1.00;;;;;;4936426;29;19931;-61
2023/09/16 12:16:16;;;;;;;;;;;22.80;1.00;;;;;;4936122;29;19950;-60
2023/09/16 12:18:43;;;;;;;;;;;22.80;1.00;;;;;;4936110;29;19927;-60
2023/09/16 12:21:10;;;;;;;;;;;22.80;1.00;;;;;;4936596;29;20268;-60
2023/09/16 12:23:43;;;;;;;;;;;22.80;1.00;;;;;;4936239;29;19966;-60
2023/09/16 12:26:10;;;;;;;;;;;22.80;1.00;;;;;;4936198;29;19962;-61
2023/09/16 12:28:37;;;;;;;;;;;22.80;1.00;;;;;;4936074;29;20022;-59
2023/09/16 12:31:08;;;;;;;;;;;22.80;1.00;;;;;;4936087;29;19927;-61
2023/09/16 12:33:47;;;;;;;;;;;22.80;1.00;;;;;;4936253;29;19934;-60
2023/09/16 12:36:27;;;;;;;;;;;22.80;1.00;;;;;;4935943;29;20044;-60
2023/09/16 12:38:55;;;;;;;;;;;22.80;1.00;;;;;;4935766;29;19927;-61
2023/09/16 12:41:25;;;;;;;;;;;22.80;1.00;;;;;;4935871;29;19990;-61
2023/09/16 12:43:53;;;;;;;;;;;22.80;1.00;;;;;;4935554;29;20026;-60
2023/09/16 12:46:20;;;;;;;;;;;22.80;1.00;;;;;;4935156;29;19927;-61
2023/09/16 12:48:48;;;;;;;;;;;22.80;1.00;;;;;;4935518;29;19930;-59
2023/09/16 12:51:17;;;;;;;;;;;22.80;1.00;;;;;;4935824;29;19927;-61
2023/09/16 12:53:44;;;;;;;;;;;22.80;1.00;;;;;;4935648;29;19982;-61
2023/09/16 12:56:19;;;;;;;;;;;22.80;1.00;;;;;;4935544;29;19973;-61
2023/09/16 12:58:49;;;;;;;;;;;22.80;1.00;;;;;;4935435;29;19938;-61
2023/09/16 13:01:17;;;;;;;;;;;22.80;1.00;;;;;;4935680;29;20481;-58
2023/09/16 13:03:45;;;;;;;;;;;22.70;1.00;;;;;;4935962;29;19948;-59
2023/09/16 13:06:12;;;;;;;;;;;22.80;1.00;;;;;;4935244;29;19927;-61
2023/09/16 13:08:39;;;;;;;;;;;22.80;1.00;;;;;;4935362;29;20392;-60
2023/09/16 13:11:06;;;;;;;;;;;22.80;1.00;;;;;;4935546;29;20021;-61
2023/09/16 13:13:33;;;;;;;;;;;22.80;1.00;;;;;;4935461;29;19933;-60
2023/09/16 13:16:03;;;;;;;;;;;22.80;1.00;;;;;;4935179;29;19935;-61
2023/09/16 13:18:30;;;;;;;;;;;22.80;1.00;;;;;;4935163;29;19927;-61
2023/09/16 13:20:57;;;;;;;;;;;22.80;1.00;;;;;;4935090;29;19935;-61
2023/09/16 13:23:28;;;;;;;;;;;22.80;1.00;;;;;;4935480;29;19985;-61
2023/09/16 13:26:07;;;;;;;;;;;22.80;1.00;;;;;;4935145;29;19927;-61
2023/09/16 13:28:33;;;;;;;;;;;22.80;1.00;;;;;;4935128;29;20407;-61
2023/09/16 13:31:00;;;;;;;;;;;22.80;1.00;;;;;;4935088;29;19954;-60
2023/09/16 13:33:42;;;;;;;;;;;22.80;1.00;;;;;;4935252;29;19935;-61
2023/09/16 13:36:09;;;;;;;;;;;22.80;1.00;;;;;;4935048;29;20022;-61
2023/09/16 13:38:36;;;;;;;;;;;22.80;1.00;;;;;;4934874;29;20343;-61
2023/09/16 13:41:02;;;;;;;;;;;22.80;1.00;;;;;;4934921;29;20013;-61
2023/09/16 13:43:29;;;;;;;;;;;22.80;1.00;;;;;;4935138;29;19965;-59
2023/09/16 13:45:56;;;;;;;;;;;22.80;1.00;;;;;;4934670;29;20001;-61
2023/09/16 13:48:23;;;;;;;;;;;22.80;1.00;;;;;;4934986;29;19927;-61
2023/09/16 13:50:50;;;;;;;;;;;22.80;1.00;;;;;;4933447;29;20327;-61
2023/09/16 13:53:17;;;;;;;;;;;22.80;1.00;;;;;;4933382;29;20401;-61
2023/09/16 13:55:46;;;;;;;;;;;22.80;1.00;;;;;;4935363;29;20021;-61
2023/09/16 13:58:12;;;;;;;;;;;22.80;1.00;;;;;;4938831;29;19966;-61
2023/09/16 14:00:39;;;;;;;;;;;22.80;1.00;;;;;;4939223;29;20263;-59
2023/09/16 14:03:06;;;;;;;;;;;22.80;1.00;;;;;;4937893;29;20426;-61
2023/09/16 14:05:33;;;;;;;;;;;22.80;1.00;;;;;;4938137;29;20286;-61
2023/09/16 14:08:00;;;;;;;;;;;22.80;1.00;;;;;;4937601;29;20065;-61
2023/09/16 14:10:28;;;;;;;;;;;22.80;1.00;;;;;;4938683;29;19927;-61
2023/09/16 14:12:58;;;;;;;;;;;22.80;1.00;;;;;;4938968;29;19933;-61
2023/09/16 14:15:26;;;;;;;;;;;22.80;1.00;;;;;;4938818;29;19950;-61
2023/09/16 14:17:54;;;;;;;;;;;22.80;1.00;;;;;;4938481;29;20312;-61
2023/09/16 14:20:21;;;;;;;;;;;22.80;1.00;;;;;;4938932;29;19926;-60
2023/09/16 14:22:48;;;;;;;;;;;22.80;1.00;;;;;;4938591;29;19978;-61
2023/09/16 14:25:15;;;;;;;;;;;22.80;1.00;;;;;;4938841;29;19927;-61
2023/09/16 14:27:42;;;;;;;;;;;22.80;1.00;;;;;;4938273;29;19927;-61
2023/09/16 14:30:10;;;;;;;;;;;22.80;1.00;;;;;;4938286;29;20021;-59
2023/09/16 14:32:37;;;;;;;;;;;22.90;1.00;;;;;;4938778;29;19927;-61
2023/09/16 14:35:07;;;;;;;;;;;22.80;1.00;;;;;;4938513;29;19927;-61